Acequia, ID

9:19 PM MDT on August 28, 2014 (GMT -0600)
Burley Municipal | Change Station
CLOSE
Current Station
Airport
Location: Burley,
Elevation: 4150 ft
Nearby Weather Stations

Elev 4150 ft 42.54 °N, 113.77 °W | Updated 26 minutes ago

Clear
Clear
69 °F
Feels Like 69 °F
N
0
Wind Variable Wind from North

Today
High -- | Low -- °F
--% Chance of Precip.
Yesterday
High -- | Low -- °F
Precip. -- in
6:55 AM 8:15 PM
Waxing Crescent, 11% visible
Pressure 29.93 in
Visibility 10.0 miles
Clouds Clear
Dew Point 52 °F
Humidity 54%
Rainfall 0.00 in
Snow Depth Not available.
UV 0 out of 12
Pollen 8.60 out of 12
Air Quality Not available.
Flu Activity Not available.
METAR KBYI 290253Z AUTO 00000KT 10SM CLR 21/11 A3003 RMK AO2 SLP134 T02060111 55001

More Conditions Fewer Conditions

Pressure 29.93 in
Visibility 10.0 miles
Clouds Clear
Dew Point 52 °F
Humidity 54%
Rainfall 0.00 in
Snow Depth Not available.
UV 0 out of 12
Pollen 8.60 out of 12
Air Quality Not available.
Flu Activity Not available.
METAR KBYI 290253Z AUTO 00000KT 10SM CLR 21/11 A3003 RMK AO2 SLP134 T02060111 55001

More Conditions Fewer Conditions

10-Day Weather Forecast

Almanac

Astronomy

Aug. 28, 2014 Rise Set
Actual Time 6:55 AM MDT 8:15 PM MDT
Civil Twilight 6:26 AM MDT 8:45 PM MDT
Nautical Twilight 5:51 AM MDT 9:20 PM MDT
Astronomical Twilight 5:13 AM MDT 9:57 PM MDT
Moon 9:56 AM MDT (8/28) 9:36 PM MDT (8/28)
Length of Visible Light 14h 18m
Length of Day
13h 20m
Tomorrow will be 2m 44s shorter.
Waxing Crescent, 11% of the Moon is Illuminated
Today
Waxing Crescent
Sep 2
First Quarter
Sep 8
Full
Sep 15
Last Quarter
Sep 24
New

Today's Extremes

State Highs State Lows

Community

WunderPhotos

Upload Photos

1,748,146 photos uploaded!

Nearby

Snow Depth

Station Depth Elevation
Swede Peak 0 in 7640 ft
Wilson Creek 0 in 7120 ft
Bear Canyon 0 in 7900 ft
Dollarhide Summit 0 in 8420 ft
Lost-Wood Divide 0 in 7900 ft

Earthquake Activity

City Distance Mag. Time & Date
No recent earthquake activity has been reported nearby.
Minimum magnitude displayed is 2.5.

Coastal Water Temperatures

Place Temperature
No Stations Reporting

Nearby Weather Stations